sensor_id;sensor_type;location;lat;lon;timestamp;temperature;humidity
52415;DHT22;38340;52.964;6.086;2022-08-18T00:01:42;18.20;99.90
52415;DHT22;38340;52.964;6.086;2022-08-18T00:04:09;18.20;99.90
52415;DHT22;38340;52.964;6.086;2022-08-18T00:06:36;18.10;99.90
52415;DHT22;38340;52.964;6.086;2022-08-18T00:09:06;18.10;99.90
52415;DHT22;38340;52.964;6.086;2022-08-18T00:11:35;18.20;99.90
52415;DHT22;38340;52.964;6.086;2022-08-18T00:14:01;18.20;99.90
52415;DHT22;38340;52.964;6.086;2022-08-18T00:16:26;18.10;99.90
52415;DHT22;38340;52.964;6.086;2022-08-18T00:18:52;18.30;99.90
52415;DHT22;38340;52.964;6.086;2022-08-18T00:21:18;18.20;99.90
52415;DHT22;38340;52.964;6.086;2022-08-18T00:23:44;18.30;99.90
52415;DHT22;38340;52.964;6.086;2022-08-18T00:26:09;18.20;99.90
52415;DHT22;38340;52.964;6.086;2022-08-18T00:28:36;18.10;99.90
52415;DHT22;38340;52.964;6.086;2022-08-18T00:31:03;18.10;99.90
52415;DHT22;38340;52.964;6.086;2022-08-18T00:33:29;18.20;99.90
52415;DHT22;38340;52.964;6.086;2022-08-18T00:35:55;18.10;99.90
52415;DHT22;38340;52.964;6.086;2022-08-18T00:38:21;18.20;99.90
52415;DHT22;38340;52.964;6.086;2022-08-18T00:40:48;18.20;99.90
52415;DHT22;38340;52.964;6.086;2022-08-18T00:43:22;18.10;99.90
52415;DHT22;38340;52.964;6.086;2022-08-18T00:45:49;18.20;99.90
52415;DHT22;38340;52.964;6.086;2022-08-18T00:48:15;18.10;99.90
52415;DHT22;38340;52.964;6.086;2022-08-18T00:53:30;18.10;99.90
52415;DHT22;38340;52.964;6.086;2022-08-18T00:56:04;18.20;99.90
52415;DHT22;38340;52.964;6.086;2022-08-18T00:58:38;18.10;99.90
52415;DHT22;38340;52.964;6.086;2022-08-18T01:01:07;18.20;99.90
52415;DHT22;38340;52.964;6.086;2022-08-18T01:03:35;18.10;99.90
52415;DHT22;38340;52.964;6.086;2022-08-18T01:06:32;18.10;99.90
52415;DHT22;38340;52.964;6.086;2022-08-18T01:09:01;18.10;99.90
52415;DHT22;38340;52.964;6.086;2022-08-18T01:11:27;18.20;99.90
52415;DHT22;38340;52.964;6.086;2022-08-18T01:13:53;18.10;99.90
52415;DHT22;38340;52.964;6.086;2022-08-18T01:16:19;18.10;99.90
52415;DHT22;38340;52.964;6.086;2022-08-18T01:19:05;18.10;99.90
52415;DHT22;38340;52.964;6.086;2022-08-18T01:21:54;18.30;99.90
52415;DHT22;38340;52.964;6.086;2022-08-18T01:24:29;18.20;99.90
52415;DHT22;38340;52.964;6.086;2022-08-18T01:27:15;18.10;99.90
52415;DHT22;38340;52.964;6.086;2022-08-18T01:29:47;18.20;99.90
52415;DHT22;38340;52.964;6.086;2022-08-18T01:32:19;18.10;99.90
52415;DHT22;38340;52.964;6.086;2022-08-18T01:34:47;18.30;99.90
52415;DHT22;38340;52.964;6.086;2022-08-18T01:37:16;18.30;99.90
52415;DHT22;38340;52.964;6.086;2022-08-18T01:39:42;18.10;99.90
52415;DHT22;38340;52.964;6.086;2022-08-18T01:42:10;18.10;99.90
52415;DHT22;38340;52.964;6.086;2022-08-18T01:44:36;18.20;99.90
52415;DHT22;38340;52.964;6.086;2022-08-18T01:47:07;18.20;99.90
52415;DHT22;38340;52.964;6.086;2022-08-18T01:49:33;18.10;99.90
52415;DHT22;38340;52.964;6.086;2022-08-18T01:51:59;18.20;99.90
52415;DHT22;38340;52.964;6.086;2022-08-18T01:54:24;18.30;99.90
52415;DHT22;38340;52.964;6.086;2022-08-18T01:56:54;18.10;99.90
52415;DHT22;38340;52.964;6.086;2022-08-18T01:59:20;18.20;99.90
52415;DHT22;38340;52.964;6.086;2022-08-18T02:01:46;18.10;99.90
52415;DHT22;38340;52.964;6.086;2022-08-18T02:04:15;18.30;99.90
52415;DHT22;38340;52.964;6.086;2022-08-18T02:06:41;18.20;99.90
52415;DHT22;38340;52.964;6.086;2022-08-18T02:09:07;18.10;99.90
52415;DHT22;38340;52.964;6.086;2022-08-18T02:11:33;18.10;99.90
52415;DHT22;38340;52.964;6.086;2022-08-18T02:13:59;18.10;99.90
52415;DHT22;38340;52.964;6.086;2022-08-18T02:16:25;18.10;99.90
52415;DHT22;38340;52.964;6.086;2022-08-18T02:21:26;18.20;99.90
52415;DHT22;38340;52.964;6.086;2022-08-18T02:23:52;18.20;99.90
52415;DHT22;38340;52.964;6.086;2022-08-18T02:26:18;18.20;99.90
52415;DHT22;38340;52.964;6.086;2022-08-18T02:28:45;18.10;99.90
52415;DHT22;38340;52.964;6.086;2022-08-18T02:31:22;18.10;99.90
52415;DHT22;38340;52.964;6.086;2022-08-18T02:33:49;18.20;99.90
52415;DHT22;38340;52.964;6.086;2022-08-18T02:36:15;18.30;99.90
52415;DHT22;38340;52.964;6.086;2022-08-18T02:38:41;18.20;99.90
52415;DHT22;38340;52.964;6.086;2022-08-18T02:41:09;18.20;99.90
52415;DHT22;38340;52.964;6.086;2022-08-18T02:43:37;18.20;99.90
52415;DHT22;38340;52.964;6.086;2022-08-18T02:46:04;18.20;99.90
52415;DHT22;38340;52.964;6.086;2022-08-18T02:48:30;18.10;99.90
52415;DHT22;38340;52.964;6.086;2022-08-18T02:51:10;18.20;99.90
52415;DHT22;38340;52.964;6.086;2022-08-18T02:53:41;18.10;99.90
52415;DHT22;38340;52.964;6.086;2022-08-18T02:58:47;18.10;99.90
52415;DHT22;38340;52.964;6.086;2022-08-18T03:01:12;18.10;99.90
52415;DHT22;38340;52.964;6.086;2022-08-18T03:03:38;18.00;99.90
52415;DHT22;38340;52.964;6.086;2022-08-18T03:06:04;18.10;99.90
52415;DHT22;38340;52.964;6.086;2022-08-18T03:08:31;18.10;99.90
52415;DHT22;38340;52.964;6.086;2022-08-18T03:10:57;18.00;99.90
52415;DHT22;38340;52.964;6.086;2022-08-18T03:13:22;18.10;99.90
52415;DHT22;38340;52.964;6.086;2022-08-18T03:15:48;18.00;99.90
52415;DHT22;38340;52.964;6.086;2022-08-18T03:18:14;18.10;99.90
52415;DHT22;38340;52.964;6.086;2022-08-18T03:20:39;18.20;99.90
52415;DHT22;38340;52.964;6.086;2022-08-18T03:23:08;18.10;99.90
52415;DHT22;38340;52.964;6.086;2022-08-18T03:25:34;18.20;99.90
52415;DHT22;38340;52.964;6.086;2022-08-18T03:28:02;18.10;99.90
52415;DHT22;38340;52.964;6.086;2022-08-18T03:30:28;18.10;99.90
52415;DHT22;38340;52.964;6.086;2022-08-18T03:32:53;18.20;99.90
52415;DHT22;38340;52.964;6.086;2022-08-18T03:35:19;18.20;99.90
52415;DHT22;38340;52.964;6.086;2022-08-18T03:37:45;18.20;99.90
52415;DHT22;38340;52.964;6.086;2022-08-18T03:40:11;18.10;99.90
52415;DHT22;38340;52.964;6.086;2022-08-18T03:42:36;18.10;99.90
52415;DHT22;38340;52.964;6.086;2022-08-18T03:45:03;18.10;99.90
52415;DHT22;38340;52.964;6.086;2022-08-18T03:47:30;18.10;99.90
52415;DHT22;38340;52.964;6.086;2022-08-18T03:49:56;18.20;99.90
52415;DHT22;38340;52.964;6.086;2022-08-18T03:52:22;18.10;99.90
52415;DHT22;38340;52.964;6.086;2022-08-18T03:54:48;18.10;99.90
52415;DHT22;38340;52.964;6.086;2022-08-18T03:57:13;18.20;99.90
52415;DHT22;38340;52.964;6.086;2022-08-18T03:59:39;18.20;99.90
52415;DHT22;38340;52.964;6.086;2022-08-18T04:02:09;18.10;99.90
52415;DHT22;38340;52.964;6.086;2022-08-18T04:04:35;18.30;99.90
52415;DHT22;38340;52.964;6.086;2022-08-18T04:07:11;18.20;99.90
52415;DHT22;38340;52.964;6.086;2022-08-18T04:09:42;18.10;99.90
52415;DHT22;38340;52.964;6.086;2022-08-18T04:12:12;18.10;99.90
52415;DHT22;38340;52.964;6.086;2022-08-18T04:14:42;18.20;99.90
52415;DHT22;38340;52.964;6.086;2022-08-18T04:17:10;18.20;99.90
52415;DHT22;38340;52.964;6.086;2022-08-18T04:19:36;18.30;99.90
52415;DHT22;38340;52.964;6.086;2022-08-18T04:22:03;18.20;99.90
52415;DHT22;38340;52.964;6.086;2022-08-18T04:24:30;18.20;99.90
52415;DHT22;38340;52.964;6.086;2022-08-18T04:26:57;18.30;99.90
52415;DHT22;38340;52.964;6.086;2022-08-18T04:29:24;18.20;99.90
52415;DHT22;38340;52.964;6.086;2022-08-18T04:31:50;18.20;99.90
52415;DHT22;38340;52.964;6.086;2022-08-18T04:34:18;18.20;99.90
52415;DHT22;38340;52.964;6.086;2022-08-18T04:36:45;18.10;99.90
52415;DHT22;38340;52.964;6.086;2022-08-18T04:39:12;18.30;99.90
52415;DHT22;38340;52.964;6.086;2022-08-18T04:41:39;18.30;99.90
52415;DHT22;38340;52.964;6.086;2022-08-18T04:44:07;18.20;99.90
52415;DHT22;38340;52.964;6.086;2022-08-18T04:46:46;18.30;99.90
52415;DHT22;38340;52.964;6.086;2022-08-18T04:49:12;18.30;99.90
52415;DHT22;38340;52.964;6.086;2022-08-18T04:51:41;18.30;99.90
52415;DHT22;38340;52.964;6.086;2022-08-18T04:54:08;18.30;99.90
52415;DHT22;38340;52.964;6.086;2022-08-18T04:56:36;18.30;99.90
52415;DHT22;38340;52.964;6.086;2022-08-18T04:59:09;18.40;99.90
52415;DHT22;38340;52.964;6.086;2022-08-18T05:01:39;18.20;99.90
52415;DHT22;38340;52.964;6.086;2022-08-18T05:04:06;18.20;99.90
52415;DHT22;38340;52.964;6.086;2022-08-18T05:06:32;18.30;99.90
52415;DHT22;38340;52.964;6.086;2022-08-18T05:09:04;18.30;99.90
52415;DHT22;38340;52.964;6.086;2022-08-18T05:11:32;18.50;99.90
52415;DHT22;38340;52.964;6.086;2022-08-18T05:13:58;18.40;99.90
52415;DHT22;38340;52.964;6.086;2022-08-18T05:16:25;18.30;99.90
52415;DHT22;38340;52.964;6.086;2022-08-18T05:18:51;18.40;99.90
52415;DHT22;38340;52.964;6.086;2022-08-18T05:21:19;18.60;99.90
52415;DHT22;38340;52.964;6.086;2022-08-18T05:23:47;18.60;99.90
52415;DHT22;38340;52.964;6.086;2022-08-18T05:26:15;18.40;99.90
52415;DHT22;38340;52.964;6.086;2022-08-18T05:28:41;18.50;99.90
52415;DHT22;38340;52.964;6.086;2022-08-18T05:31:16;18.50;99.90
52415;DHT22;38340;52.964;6.086;2022-08-18T05:33:42;18.40;99.90
52415;DHT22;38340;52.964;6.086;2022-08-18T05:39:23;18.50;99.90
52415;DHT22;38340;52.964;6.086;2022-08-18T05:42:02;18.60;99.90
52415;DHT22;38340;52.964;6.086;2022-08-18T05:44:39;18.50;99.90
52415;DHT22;38340;52.964;6.086;2022-08-18T05:47:13;18.60;99.90
52415;DHT22;38340;52.964;6.086;2022-08-18T05:49:46;18.50;99.90
52415;DHT22;38340;52.964;6.086;2022-08-18T05:52:46;18.40;99.90
52415;DHT22;38340;52.964;6.086;2022-08-18T05:55:22;18.60;99.90
52415;DHT22;38340;52.964;6.086;2022-08-18T05:58:17;18.50;99.90
52415;DHT22;38340;52.964;6.086;2022-08-18T06:00:51;18.70;99.90
52415;DHT22;38340;52.964;6.086;2022-08-18T06:03:22;18.60;99.90
52415;DHT22;38340;52.964;6.086;2022-08-18T06:05:54;18.60;99.90
52415;DHT22;38340;52.964;6.086;2022-08-18T06:08:25;18.70;99.90
52415;DHT22;38340;52.964;6.086;2022-08-18T06:10:52;18.80;99.90
52415;DHT22;38340;52.964;6.086;2022-08-18T06:13:19;18.90;99.90
52415;DHT22;38340;52.964;6.086;2022-08-18T06:16:17;18.90;99.90
52415;DHT22;38340;52.964;6.086;2022-08-18T06:24:50;18.80;99.90
52415;DHT22;38340;52.964;6.086;2022-08-18T06:29:55;19.00;99.90
52415;DHT22;38340;52.964;6.086;2022-08-18T06:35:19;18.90;99.90
52415;DHT22;38340;52.964;6.086;2022-08-18T06:43:33;19.10;99.90
52415;DHT22;38340;52.964;6.086;2022-08-18T06:46:05;19.20;99.90
52415;DHT22;38340;52.964;6.086;2022-08-18T06:48:43;19.30;99.90
52415;DHT22;38340;52.964;6.086;2022-08-18T06:51:14;19.40;99.90
52415;DHT22;38340;52.964;6.086;2022-08-18T06:59:19;19.30;99.90
52415;DHT22;38340;52.964;6.086;2022-08-18T07:01:46;19.70;99.90
52415;DHT22;38340;52.964;6.086;2022-08-18T07:04:32;19.70;99.90
52415;DHT22;38340;52.964;6.086;2022-08-18T07:07:18;19.90;99.90
52415;DHT22;38340;52.964;6.086;2022-08-18T07:09:46;20.00;99.90
52415;DHT22;38340;52.964;6.086;2022-08-18T07:12:22;19.90;99.90
52415;DHT22;38340;52.964;6.086;2022-08-18T07:14:57;19.90;99.90
52415;DHT22;38340;52.964;6.086;2022-08-18T07:17:30;19.80;99.90
52415;DHT22;38340;52.964;6.086;2022-08-18T07:19:59;19.80;99.90
52415;DHT22;38340;52.964;6.086;2022-08-18T07:22:26;20.00;99.90
52415;DHT22;38340;52.964;6.086;2022-08-18T07:24:53;20.10;99.90
52415;DHT22;38340;52.964;6.086;2022-08-18T07:30:34;20.20;99.90
52415;DHT22;38340;52.964;6.086;2022-08-18T07:33:01;20.00;99.90
52415;DHT22;38340;52.964;6.086;2022-08-18T07:35:36;20.20;99.90
52415;DHT22;38340;52.964;6.086;2022-08-18T07:38:09;20.10;99.90
52415;DHT22;38340;52.964;6.086;2022-08-18T07:41:13;19.80;99.90
52415;DHT22;38340;52.964;6.086;2022-08-18T07:46:33;19.80;99.90
52415;DHT22;38340;52.964;6.086;2022-08-18T07:49:00;19.80;99.90
52415;DHT22;38340;52.964;6.086;2022-08-18T07:51:52;19.60;99.90
52415;DHT22;38340;52.964;6.086;2022-08-18T07:57:20;19.50;99.90
52415;DHT22;38340;52.964;6.086;2022-08-18T08:00:20;19.40;99.90
52415;DHT22;38340;52.964;6.086;2022-08-18T08:05:47;19.40;99.90
52415;DHT22;38340;52.964;6.086;2022-08-18T08:27:40;19.80;99.90
52415;DHT22;38340;52.964;6.086;2022-08-18T08:30:14;20.00;99.90
52415;DHT22;38340;52.964;6.086;2022-08-18T08:33:05;20.10;99.90
52415;DHT22;38340;52.964;6.086;2022-08-18T08:38:20;20.50;99.90
52415;DHT22;38340;52.964;6.086;2022-08-18T08:41:00;20.70;99.90
52415;DHT22;38340;52.964;6.086;2022-08-18T08:43:37;20.70;99.90
52415;DHT22;38340;52.964;6.086;2022-08-18T08:48:47;20.80;99.90
52415;DHT22;38340;52.964;6.086;2022-08-18T08:51:40;20.80;99.90
52415;DHT22;38340;52.964;6.086;2022-08-18T08:54:24;21.00;99.90
52415;DHT22;38340;52.964;6.086;2022-08-18T08:56:54;21.20;99.90
52415;DHT22;38340;52.964;6.086;2022-08-18T08:59:22;21.20;99.90
52415;DHT22;38340;52.964;6.086;2022-08-18T09:07:44;21.70;99.90
52415;DHT22;38340;52.964;6.086;2022-08-18T09:10:43;22.00;99.90
52415;DHT22;38340;52.964;6.086;2022-08-18T09:15:56;22.00;99.90
52415;DHT22;38340;52.964;6.086;2022-08-18T09:18:41;22.00;99.90
52415;DHT22;38340;52.964;6.086;2022-08-18T09:21:34;21.80;99.90
52415;DHT22;38340;52.964;6.086;2022-08-18T09:24:13;21.60;99.90
52415;DHT22;38340;52.964;6.086;2022-08-18T09:26:49;21.60;99.90
52415;DHT22;38340;52.964;6.086;2022-08-18T09:29:45;21.60;99.90
52415;DHT22;38340;52.964;6.086;2022-08-18T09:37:48;21.90;99.90
52415;DHT22;38340;52.964;6.086;2022-08-18T09:40:50;22.20;99.90
52415;DHT22;38340;52.964;6.086;2022-08-18T09:51:56;22.40;99.90
52415;DHT22;38340;52.964;6.086;2022-08-18T09:54:32;22.50;99.90
52415;DHT22;38340;52.964;6.086;2022-08-18T10:02:11;22.80;99.90
52415;DHT22;38340;52.964;6.086;2022-08-18T10:04:42;22.80;99.90
52415;DHT22;38340;52.964;6.086;2022-08-18T10:10:02;22.10;99.90
52415;DHT22;38340;52.964;6.086;2022-08-18T10:18:03;21.80;99.90
52415;DHT22;38340;52.964;6.086;2022-08-18T10:23:46;22.00;99.90
52415;DHT22;38340;52.964;6.086;2022-08-18T10:29:09;22.10;99.90
52415;DHT22;38340;52.964;6.086;2022-08-18T10:34:43;22.30;99.90
52415;DHT22;38340;52.964;6.086;2022-08-18T10:37:43;22.20;99.90
52415;DHT22;38340;52.964;6.086;2022-08-18T10:42:46;22.50;99.90
52415;DHT22;38340;52.964;6.086;2022-08-18T10:48:07;22.90;99.90
52415;DHT22;38340;52.964;6.086;2022-08-18T10:55:57;23.30;99.90
52415;DHT22;38340;52.964;6.086;2022-08-18T10:58:52;22.90;99.90
52415;DHT22;38340;52.964;6.086;2022-08-18T11:04:21;22.90;99.90
52415;DHT22;38340;52.964;6.086;2022-08-18T11:06:51;22.70;99.90
52415;DHT22;38340;52.964;6.086;2022-08-18T11:09:27;22.90;99.90
52415;DHT22;38340;52.964;6.086;2022-08-18T11:11:56;23.10;99.90
52415;DHT22;38340;52.964;6.086;2022-08-18T11:14:52;23.30;99.90
52415;DHT22;38340;52.964;6.086;2022-08-18T11:17:32;23.40;99.90
52415;DHT22;38340;52.964;6.086;2022-08-18T11:20:00;23.40;99.90
52415;DHT22;38340;52.964;6.086;2022-08-18T11:22:33;23.40;99.90
52415;DHT22;38340;52.964;6.086;2022-08-18T11:24:59;23.40;99.90
52415;DHT22;38340;52.964;6.086;2022-08-18T11:27:28;23.60;99.90
52415;DHT22;38340;52.964;6.086;2022-08-18T11:30:00;23.60;99.90
52415;DHT22;38340;52.964;6.086;2022-08-18T11:32:37;23.80;99.90
52415;DHT22;38340;52.964;6.086;2022-08-18T11:37:42;23.70;99.90
52415;DHT22;38340;52.964;6.086;2022-08-18T11:43:03;23.40;99.90
52415;DHT22;38340;52.964;6.086;2022-08-18T11:45:49;23.40;99.90
52415;DHT22;38340;52.964;6.086;2022-08-18T11:51:09;23.50;99.90
52415;DHT22;38340;52.964;6.086;2022-08-18T11:53:50;23.60;99.90
52415;DHT22;38340;52.964;6.086;2022-08-18T11:56:34;23.70;99.90
52415;DHT22;38340;52.964;6.086;2022-08-18T12:01:39;23.80;99.90
52415;DHT22;38340;52.964;6.086;2022-08-18T12:06:59;24.20;99.90
52415;DHT22;38340;52.964;6.086;2022-08-18T12:12:45;24.50;99.90
52415;DHT22;38340;52.964;6.086;2022-08-18T12:15:38;24.30;99.90
52415;DHT22;38340;52.964;6.086;2022-08-18T12:17:46;24.50;99.90
52415;DHT22;38340;52.964;6.086;2022-08-18T12:20:13;24.60;99.90
52415;DHT22;38340;52.964;6.086;2022-08-18T12:22:40;24.60;99.90
52415;DHT22;38340;52.964;6.086;2022-08-18T12:25:13;24.50;99.90
52415;DHT22;38340;52.964;6.086;2022-08-18T12:27:39;24.50;99.90
52415;DHT22;38340;52.964;6.086;2022-08-18T12:30:07;24.40;99.90
52415;DHT22;38340;52.964;6.086;2022-08-18T12:32:34;24.40;99.90
52415;DHT22;38340;52.964;6.086;2022-08-18T12:35:00;24.30;99.90
52415;DHT22;38340;52.964;6.086;2022-08-18T12:37:28;24.40;99.90
52415;DHT22;38340;52.964;6.086;2022-08-18T12:39:55;24.30;99.90
52415;DHT22;38340;52.964;6.086;2022-08-18T12:42:22;24.10;99.90
52415;DHT22;38340;52.964;6.086;2022-08-18T12:44:48;24.10;99.90
52415;DHT22;38340;52.964;6.086;2022-08-18T12:47:17;24.00;99.90
52415;DHT22;38340;52.964;6.086;2022-08-18T12:49:44;24.00;99.90
52415;DHT22;38340;52.964;6.086;2022-08-18T12:52:09;24.10;99.90
52415;DHT22;38340;52.964;6.086;2022-08-18T12:54:36;24.20;99.90
52415;DHT22;38340;52.964;6.086;2022-08-18T12:57:05;24.30;99.90
52415;DHT22;38340;52.964;6.086;2022-08-18T12:59:31;24.50;99.90
52415;DHT22;38340;52.964;6.086;2022-08-18T13:01:57;24.60;99.90
52415;DHT22;38340;52.964;6.086;2022-08-18T13:04:23;24.70;99.90
52415;DHT22;38340;52.964;6.086;2022-08-18T13:06:51;25.00;99.90
52415;DHT22;38340;52.964;6.086;2022-08-18T13:09:19;25.20;99.90
52415;DHT22;38340;52.964;6.086;2022-08-18T13:11:45;25.60;99.90
52415;DHT22;38340;52.964;6.086;2022-08-18T13:14:11;25.80;99.90
52415;DHT22;38340;52.964;6.086;2022-08-18T13:16:41;26.00;99.90
52415;DHT22;38340;52.964;6.086;2022-08-18T13:19:09;26.10;99.90
52415;DHT22;38340;52.964;6.086;2022-08-18T13:21:35;26.00;99.90
52415;DHT22;38340;52.964;6.086;2022-08-18T13:24:01;25.80;99.90
52415;DHT22;38340;52.964;6.086;2022-08-18T13:26:34;25.60;99.90
52415;DHT22;38340;52.964;6.086;2022-08-18T13:29:01;25.30;99.90
52415;DHT22;38340;52.964;6.086;2022-08-18T13:31:27;24.90;99.90
52415;DHT22;38340;52.964;6.086;2022-08-18T13:33:54;24.50;99.90
52415;DHT22;38340;52.964;6.086;2022-08-18T13:36:22;24.40;99.90
52415;DHT22;38340;52.964;6.086;2022-08-18T13:38:48;24.40;99.90
52415;DHT22;38340;52.964;6.086;2022-08-18T13:41:16;24.50;99.90
52415;DHT22;38340;52.964;6.086;2022-08-18T13:43:43;24.70;99.90
52415;DHT22;38340;52.964;6.086;2022-08-18T13:46:12;24.70;99.90
52415;DHT22;38340;52.964;6.086;2022-08-18T13:48:38;24.90;99.90
52415;DHT22;38340;52.964;6.086;2022-08-18T13:51:06;25.10;99.90
52415;DHT22;38340;52.964;6.086;2022-08-18T13:53:34;25.40;99.90
52415;DHT22;38340;52.964;6.086;2022-08-18T13:56:00;25.50;99.90
52415;DHT22;38340;52.964;6.086;2022-08-18T13:58:27;25.50;99.90
52415;DHT22;38340;52.964;6.086;2022-08-18T14:01:01;25.30;99.90
52415;DHT22;38340;52.964;6.086;2022-08-18T14:03:28;25.00;99.90
52415;DHT22;38340;52.964;6.086;2022-08-18T14:05:53;24.80;99.90
52415;DHT22;38340;52.964;6.086;2022-08-18T14:08:23;24.90;99.90
52415;DHT22;38340;52.964;6.086;2022-08-18T14:10:52;25.10;99.90
52415;DHT22;38340;52.964;6.086;2022-08-18T14:13:18;25.30;99.90
52415;DHT22;38340;52.964;6.086;2022-08-18T14:15:44;25.10;99.90
52415;DHT22;38340;52.964;6.086;2022-08-18T14:18:10;25.00;99.90
52415;DHT22;38340;52.964;6.086;2022-08-18T14:20:36;24.90;99.90
52415;DHT22;38340;52.964;6.086;2022-08-18T14:23:20;24.70;99.90
52415;DHT22;38340;52.964;6.086;2022-08-18T14:26:04;24.70;99.90
52415;DHT22;38340;52.964;6.086;2022-08-18T14:28:49;25.00;99.90
52415;DHT22;38340;52.964;6.086;2022-08-18T14:31:15;25.00;99.90
52415;DHT22;38340;52.964;6.086;2022-08-18T14:33:43;25.20;99.90
52415;DHT22;38340;52.964;6.086;2022-08-18T14:36:09;25.20;99.90
52415;DHT22;38340;52.964;6.086;2022-08-18T14:38:34;25.10;99.90
52415;DHT22;38340;52.964;6.086;2022-08-18T14:41:06;25.00;99.90
52415;DHT22;38340;52.964;6.086;2022-08-18T14:43:33;25.00;99.90
52415;DHT22;38340;52.964;6.086;2022-08-18T14:46:01;24.80;99.90
52415;DHT22;38340;52.964;6.086;2022-08-18T14:48:28;24.80;99.90
52415;DHT22;38340;52.964;6.086;2022-08-18T14:50:55;24.80;99.90
52415;DHT22;38340;52.964;6.086;2022-08-18T14:53:27;24.70;99.90
52415;DHT22;38340;52.964;6.086;2022-08-18T14:55:53;24.80;99.90
52415;DHT22;38340;52.964;6.086;2022-08-18T14:58:21;24.70;99.90
52415;DHT22;38340;52.964;6.086;2022-08-18T15:00:51;24.70;99.90
52415;DHT22;38340;52.964;6.086;2022-08-18T15:03:16;24.70;99.90
52415;DHT22;38340;52.964;6.086;2022-08-18T15:05:42;24.70;99.90
52415;DHT22;38340;52.964;6.086;2022-08-18T15:08:08;24.70;99.90
52415;DHT22;38340;52.964;6.086;2022-08-18T15:10:35;24.80;99.90
52415;DHT22;38340;52.964;6.086;2022-08-18T15:13:02;24.80;99.90
52415;DHT22;38340;52.964;6.086;2022-08-18T15:15:28;24.80;99.90
52415;DHT22;38340;52.964;6.086;2022-08-18T15:17:54;24.70;99.90
52415;DHT22;38340;52.964;6.086;2022-08-18T15:20:22;24.50;99.90
52415;DHT22;38340;52.964;6.086;2022-08-18T15:22:48;24.50;99.90
52415;DHT22;38340;52.964;6.086;2022-08-18T15:25:32;24.50;99.90
52415;DHT22;38340;52.964;6.086;2022-08-18T15:28:18;24.50;99.90
52415;DHT22;38340;52.964;6.086;2022-08-18T15:30:48;24.60;99.90
52415;DHT22;38340;52.964;6.086;2022-08-18T15:33:14;24.80;99.90
52415;DHT22;38340;52.964;6.086;2022-08-18T15:35:44;24.90;99.90
52415;DHT22;38340;52.964;6.086;2022-08-18T15:38:15;25.10;99.90
52415;DHT22;38340;52.964;6.086;2022-08-18T15:43:14;25.10;99.90
52415;DHT22;38340;52.964;6.086;2022-08-18T15:45:41;25.10;99.90
52415;DHT22;38340;52.964;6.086;2022-08-18T15:48:10;24.90;99.90
52415;DHT22;38340;52.964;6.086;2022-08-18T15:50:35;24.70;99.90
52415;DHT22;38340;52.964;6.086;2022-08-18T15:53:03;24.70;99.90
52415;DHT22;38340;52.964;6.086;2022-08-18T15:55:32;24.80;99.90
52415;DHT22;38340;52.964;6.086;2022-08-18T15:57:58;24.90;99.90
52415;DHT22;38340;52.964;6.086;2022-08-18T16:00:26;24.90;99.90
52415;DHT22;38340;52.964;6.086;2022-08-18T16:02:54;24.80;99.90
52415;DHT22;38340;52.964;6.086;2022-08-18T16:05:29;24.80;99.90
52415;DHT22;38340;52.964;6.086;2022-08-18T16:07:57;24.80;99.90
52415;DHT22;38340;52.964;6.086;2022-08-18T16:10:25;24.50;99.90
52415;DHT22;38340;52.964;6.086;2022-08-18T16:12:51;24.50;99.90
52415;DHT22;38340;52.964;6.086;2022-08-18T16:15:20;24.50;99.90
52415;DHT22;38340;52.964;6.086;2022-08-18T16:17:48;24.50;99.90
52415;DHT22;38340;52.964;6.086;2022-08-18T16:20:14;24.30;99.90
52415;DHT22;38340;52.964;6.086;2022-08-18T16:22:40;24.40;99.90
52415;DHT22;38340;52.964;6.086;2022-08-18T16:25:07;24.60;99.90
52415;DHT22;38340;52.964;6.086;2022-08-18T16:27:34;24.60;99.90
52415;DHT22;38340;52.964;6.086;2022-08-18T16:30:00;24.70;99.90
52415;DHT22;38340;52.964;6.086;2022-08-18T16:32:29;24.60;99.90
52415;DHT22;38340;52.964;6.086;2022-08-18T16:34:56;24.70;99.90
52415;DHT22;38340;52.964;6.086;2022-08-18T16:37:21;24.90;99.90
52415;DHT22;38340;52.964;6.086;2022-08-18T16:39:47;24.80;99.90
52415;DHT22;38340;52.964;6.086;2022-08-18T16:42:13;24.60;99.90
52415;DHT22;38340;52.964;6.086;2022-08-18T16:44:38;24.40;99.90
52415;DHT22;38340;52.964;6.086;2022-08-18T16:47:05;24.00;99.90
52415;DHT22;38340;52.964;6.086;2022-08-18T16:49:31;23.90;99.90
52415;DHT22;38340;52.964;6.086;2022-08-18T16:51:58;23.80;99.90
52415;DHT22;38340;52.964;6.086;2022-08-18T16:54:27;23.70;99.90
52415;DHT22;38340;52.964;6.086;2022-08-18T16:56:53;23.60;99.90
52415;DHT22;38340;52.964;6.086;2022-08-18T16:59:19;23.50;99.90
52415;DHT22;38340;52.964;6.086;2022-08-18T17:02:03;23.50;99.90
52415;DHT22;38340;52.964;6.086;2022-08-18T17:04:48;23.50;99.90
52415;DHT22;38340;52.964;6.086;2022-08-18T17:07:16;23.50;99.90
52415;DHT22;38340;52.964;6.086;2022-08-18T17:09:42;23.50;99.90
52415;DHT22;38340;52.964;6.086;2022-08-18T17:12:08;23.40;99.90
52415;DHT22;38340;52.964;6.086;2022-08-18T17:14:33;23.40;99.90
52415;DHT22;38340;52.964;6.086;2022-08-18T17:17:01;23.30;99.90
52415;DHT22;38340;52.964;6.086;2022-08-18T17:19:29;23.30;99.90
52415;DHT22;38340;52.964;6.086;2022-08-18T17:21:58;23.20;99.90
52415;DHT22;38340;52.964;6.086;2022-08-18T17:24:24;23.20;99.90
52415;DHT22;38340;52.964;6.086;2022-08-18T17:27:18;23.20;99.90
52415;DHT22;38340;52.964;6.086;2022-08-18T17:29:56;23.10;99.90
52415;DHT22;38340;52.964;6.086;2022-08-18T17:32:30;23.10;99.90
52415;DHT22;38340;52.964;6.086;2022-08-18T17:35:12;23.10;99.90
52415;DHT22;38340;52.964;6.086;2022-08-18T17:37:45;23.00;99.90
52415;DHT22;38340;52.964;6.086;2022-08-18T17:40:26;22.90;99.90
52415;DHT22;38340;52.964;6.086;2022-08-18T17:42:54;22.80;99.90
52415;DHT22;38340;52.964;6.086;2022-08-18T17:45:20;22.60;99.90
52415;DHT22;38340;52.964;6.086;2022-08-18T17:47:53;22.60;99.90
52415;DHT22;38340;52.964;6.086;2022-08-18T17:53:16;22.40;99.90
52415;DHT22;38340;52.964;6.086;2022-08-18T17:55:57;22.30;99.90
52415;DHT22;38340;52.964;6.086;2022-08-18T17:58:40;22.30;99.90
52415;DHT22;38340;52.964;6.086;2022-08-18T18:01:10;22.20;99.90
52415;DHT22;38340;52.964;6.086;2022-08-18T18:03:37;22.20;99.90
52415;DHT22;38340;52.964;6.086;2022-08-18T18:06:17;22.10;99.90
52415;DHT22;38340;52.964;6.086;2022-08-18T18:08:55;21.90;99.90
52415;DHT22;38340;52.964;6.086;2022-08-18T18:11:25;21.90;99.90
52415;DHT22;38340;52.964;6.086;2022-08-18T18:13:51;21.90;99.90
52415;DHT22;38340;52.964;6.086;2022-08-18T18:16:30;21.80;99.90
52415;DHT22;38340;52.964;6.086;2022-08-18T18:19:10;21.80;99.90
52415;DHT22;38340;52.964;6.086;2022-08-18T18:21:38;21.70;99.90
52415;DHT22;38340;52.964;6.086;2022-08-18T18:26:38;21.60;99.90